createdAt,value
2022-10-29T00:00:54.798Z,13.98
2022-10-29T00:03:22.347Z,12.32
2022-10-29T00:05:58.498Z,8.80
2022-10-29T00:08:25.736Z,9.25
2022-10-29T00:10:52.520Z,10.32
2022-10-29T00:13:19.225Z,13.90
2022-10-29T00:15:45.944Z,15.00
2022-10-29T00:18:12.646Z,6.22
2022-10-29T00:20:39.267Z,9.43
2022-10-29T00:23:07.366Z,12.13
2022-10-29T00:25:34.042Z,15.27
2022-10-29T00:28:00.749Z,11.80
2022-10-29T00:30:27.489Z,15.27
2022-10-29T00:32:54.403Z,13.00
2022-10-29T00:35:21.155Z,9.57
2022-10-29T00:37:47.897Z,8.77
2022-10-29T00:40:16.129Z,15.68
2022-10-29T00:42:42.851Z,12.93
2022-10-29T00:45:18.708Z,7.03
2022-10-29T00:47:50.141Z,8.02
2022-10-29T00:50:17.606Z,9.98
2022-10-29T00:52:47.942Z,11.77
2022-10-29T00:55:17.210Z,7.88
2022-10-29T00:57:47.827Z,15.40
2022-10-29T01:00:15.240Z,21.63
2022-10-29T01:02:43.711Z,11.88
2022-10-29T01:05:12.195Z,9.30
2022-10-29T01:07:39.578Z,25.65
2022-10-29T01:10:07.334Z,20.05
2022-10-29T01:12:55.075Z,7.03
2022-10-29T01:15:29.114Z,9.75
2022-10-29T01:18:07.959Z,14.63
2022-10-29T01:21:01.625Z,15.57
2022-10-29T01:24:15.373Z,9.55
2022-10-29T01:27:19.692Z,13.27
2022-10-29T01:30:06.112Z,8.20
2022-10-29T01:32:43.283Z,11.55
2022-10-29T01:35:15.499Z,9.07
2022-10-29T01:37:54.068Z,8.60
2022-10-29T01:40:26.145Z,6.67
2022-10-29T01:42:58.244Z,12.70
2022-10-29T01:45:30.672Z,10.52
2022-10-29T01:48:04.479Z,8.38
2022-10-29T01:50:32.406Z,7.10
2022-10-29T01:53:00.571Z,6.05
2022-10-29T01:55:31.278Z,5.30
2022-10-29T01:57:58.281Z,9.45
2022-10-29T02:00:25.429Z,8.13
2022-10-29T02:03:06.348Z,8.18
2022-10-29T02:05:38.114Z,6.60
2022-10-29T02:08:16.908Z,7.68
2022-10-29T02:10:48.650Z,10.77
2022-10-29T02:13:19.279Z,7.60
2022-10-29T02:15:50.208Z,6.45
2022-10-29T02:18:18.548Z,7.93
2022-10-29T02:20:46.385Z,8.75
2022-10-29T02:23:15.168Z,5.65
2022-10-29T02:25:41.935Z,24.00
2022-10-29T02:28:08.781Z,6.65
2022-10-29T02:30:35.575Z,6.50
2022-10-29T02:33:02.237Z,5.95
2022-10-29T02:35:30.381Z,8.18
2022-10-29T02:37:57.064Z,8.68
2022-10-29T02:40:23.675Z,10.57
2022-10-29T02:42:50.369Z,7.93
2022-10-29T02:45:17.347Z,7.47
2022-10-29T02:47:44.047Z,7.03
2022-10-29T02:50:10.760Z,10.05
2022-10-29T02:52:40.140Z,6.40
2022-10-29T02:55:07.325Z,6.32
2022-10-29T02:57:34.053Z,7.50
2022-10-29T03:00:00.835Z,5.97
2022-10-29T03:02:27.588Z,7.15
2022-10-29T03:04:54.318Z,5.57
2022-10-29T03:07:20.975Z,7.28
2022-10-29T03:09:49.102Z,5.13
2022-10-29T03:12:15.800Z,5.35
2022-10-29T03:14:42.461Z,6.57
2022-10-29T03:17:09.095Z,8.25
2022-10-29T03:19:35.850Z,8.35
2022-10-29T03:22:02.538Z,5.95
2022-10-29T03:24:29.235Z,6.72
2022-10-29T03:26:57.290Z,5.82
2022-10-29T03:29:23.987Z,8.88
2022-10-29T03:31:50.687Z,9.13
2022-10-29T03:34:17.344Z,7.95
2022-10-29T03:36:44.295Z,6.13
2022-10-29T03:39:10.972Z,10.15
2022-10-29T03:41:37.803Z,9.20
2022-10-29T03:44:06.018Z,8.50
2022-10-29T03:46:32.914Z,15.35
2022-10-29T03:48:59.645Z,5.55
2022-10-29T03:51:26.323Z,6.30
2022-10-29T03:53:52.982Z,4.57
2022-10-29T03:56:19.663Z,9.55
2022-10-29T03:58:46.292Z,4.53
2022-10-29T04:01:14.533Z,7.00
2022-10-29T04:03:41.265Z,6.40
2022-10-29T04:06:14.127Z,9.50
2022-10-29T04:08:41.534Z,13.18
2022-10-29T04:11:11.414Z,5.15
2022-10-29T04:13:38.103Z,11.48
2022-10-29T04:16:05.318Z,8.48
2022-10-29T04:18:33.605Z,4.68
2022-10-29T04:29:22.658Z,6.38
2022-10-29T04:31:49.666Z,4.80
2022-10-29T04:34:17.933Z,7.32
2022-10-29T04:36:44.600Z,9.68
2022-10-29T04:39:11.290Z,7.25
2022-10-29T04:41:38.069Z,4.65
2022-10-29T04:44:05.047Z,9.23
2022-10-29T04:46:31.705Z,4.63
2022-10-29T04:48:58.445Z,4.32
2022-10-29T04:51:27.042Z,5.45
2022-10-29T04:53:53.700Z,10.53
2022-10-29T04:56:20.420Z,4.53
2022-10-29T04:58:47.141Z,4.75
2022-10-29T05:01:13.974Z,9.82
2022-10-29T05:03:40.880Z,8.00
2022-10-29T05:06:07.713Z,13.73
2022-10-29T05:08:35.807Z,4.60
2022-10-29T05:11:03.068Z,3.58
2022-10-29T05:13:29.726Z,3.45
2022-10-29T05:15:56.506Z,6.75
2022-10-29T05:18:23.586Z,4.22
2022-10-29T05:20:53.127Z,16.95
2022-10-29T05:23:20.528Z,5.53
2022-10-29T05:25:49.068Z,7.60
2022-10-29T05:28:17.723Z,3.80
2022-10-29T05:30:44.852Z,4.23
2022-10-29T05:33:14.249Z,6.95
2022-10-29T05:35:41.437Z,6.47
2022-10-29T05:38:10.350Z,12.90
2022-10-29T05:40:37.238Z,23.42
2022-10-29T05:43:05.743Z,18.40
2022-10-29T05:45:32.369Z,6.15
2022-10-29T05:48:00.783Z,11.68
2022-10-29T05:50:28.478Z,3.88
2022-10-29T05:52:56.174Z,6.53
2022-10-29T05:55:23.154Z,5.97
2022-10-29T05:57:49.917Z,6.85
2022-10-29T06:00:18.225Z,4.28
2022-10-29T06:02:45.262Z,4.38
2022-10-29T06:05:12.050Z,7.65
2022-10-29T06:07:38.907Z,4.95
2022-10-29T06:10:06.949Z,5.95
2022-10-29T06:12:34.968Z,6.93
2022-10-29T06:15:01.942Z,4.85
2022-10-29T06:17:30.153Z,3.67
2022-10-29T06:19:57.006Z,3.45
2022-10-29T06:22:23.689Z,10.25
2022-10-29T06:24:50.341Z,3.83
2022-10-29T06:27:17.065Z,4.43
2022-10-29T06:29:43.733Z,7.75
2022-10-29T06:32:10.393Z,6.88
2022-10-29T06:34:38.479Z,6.47
2022-10-29T06:37:05.259Z,3.72
2022-10-29T06:39:32.038Z,5.55
2022-10-29T06:41:58.754Z,3.85
2022-10-29T06:44:25.530Z,4.38
2022-10-29T06:46:52.164Z,6.45
2022-10-29T06:49:18.886Z,4.55
2022-10-29T06:51:47.175Z,5.50
2022-10-29T06:54:14.162Z,5.97
2022-10-29T06:56:41.122Z,7.53
2022-10-29T06:59:08.050Z,4.50
2022-10-29T07:01:34.820Z,4.90
2022-10-29T07:04:01.961Z,7.32
2022-10-29T07:06:32.261Z,8.07
2022-10-29T07:09:00.391Z,8.10
2022-10-29T07:11:27.109Z,10.65
2022-10-29T07:13:53.820Z,12.35
2022-10-29T07:16:20.536Z,5.78
2022-10-29T07:18:47.284Z,8.30
2022-10-29T07:21:14.011Z,5.95
2022-10-29T07:23:40.757Z,6.35
2022-10-29T07:26:08.921Z,8.20
2022-10-29T07:28:35.792Z,6.07
2022-10-29T07:31:02.520Z,10.00
2022-10-29T07:33:29.536Z,7.72
2022-10-29T07:35:57.558Z,9.00
2022-10-29T07:38:24.601Z,9.65
2022-10-29T07:40:51.739Z,5.88
2022-10-29T07:43:21.331Z,8.40
2022-10-29T07:45:49.857Z,6.85
2022-10-29T07:48:17.671Z,5.80
2022-10-29T07:50:44.350Z,7.20
2022-10-29T07:53:11.370Z,4.75
2022-10-29T07:55:38.525Z,4.40
2022-10-29T07:58:12.350Z,5.28
2022-10-29T08:00:50.756Z,6.50
2022-10-29T08:03:17.593Z,5.13
2022-10-29T08:05:44.556Z,6.93
2022-10-29T08:08:11.244Z,4.65
2022-10-29T08:10:39.970Z,7.50
2022-10-29T08:13:07.053Z,4.28
2022-10-29T08:15:34.673Z,8.27
2022-10-29T08:18:03.360Z,5.95
2022-10-29T08:20:30.140Z,41.45
2022-10-29T08:22:59.870Z,75.05
2022-10-29T08:25:27.123Z,27.85
2022-10-29T08:28:01.854Z,14.68
2022-10-29T08:30:29.489Z,9.80
2022-10-29T08:32:57.809Z,6.15
2022-10-29T08:35:28.322Z,4.55
2022-10-29T08:37:55.924Z,6.93
2022-10-29T08:40:32.343Z,4.50
2022-10-29T08:46:31.887Z,10.25
2022-10-29T08:49:18.784Z,6.22
2022-10-29T08:51:53.704Z,8.88
2022-10-29T08:54:30.960Z,6.38
2022-10-29T08:57:02.518Z,5.00
2022-10-29T08:59:35.858Z,6.00
2022-10-29T09:02:02.903Z,7.95
2022-10-29T09:04:34.190Z,7.28
2022-10-29T09:07:28.927Z,27.80
2022-10-29T09:10:04.289Z,9.95
2022-10-29T09:12:52.282Z,9.15
2022-10-29T09:15:33.842Z,11.68
2022-10-29T09:18:14.897Z,7.63
2022-10-29T09:20:55.184Z,8.43
2022-10-29T09:23:38.306Z,8.07
2022-10-29T09:26:16.114Z,9.23
2022-10-29T09:28:55.496Z,8.43
2022-10-29T09:34:00.884Z,11.70
2022-10-29T09:36:31.966Z,19.35
2022-10-29T09:39:13.463Z,24.67
2022-10-29T09:41:41.394Z,17.17
2022-10-29T09:44:19.026Z,12.25
2022-10-29T09:46:55.695Z,13.35
2022-10-29T09:49:45.198Z,14.93
2022-10-29T09:52:16.745Z,31.23
2022-10-29T09:54:46.118Z,13.05
2022-10-29T09:57:22.352Z,10.13
2022-10-29T09:59:56.402Z,10.90
2022-10-29T10:02:33.174Z,11.93
2022-10-29T10:05:12.478Z,13.25
2022-10-29T10:07:39.637Z,8.90
2022-10-29T10:10:21.080Z,10.50
2022-10-29T10:12:49.898Z,12.30
2022-10-29T10:15:25.425Z,10.50
2022-10-29T10:18:02.734Z,10.15
2022-10-29T10:20:38.572Z,13.77
2022-10-29T10:23:25.854Z,9.40
2022-10-29T10:25:58.919Z,16.70
2022-10-29T10:28:30.723Z,15.88
2022-10-29T10:31:08.130Z,13.15
2022-10-29T10:33:36.909Z,18.80
2022-10-29T10:36:06.037Z,9.57
2022-10-29T10:38:39.343Z,9.27
2022-10-29T10:41:10.619Z,11.10
2022-10-29T10:43:47.917Z,10.40
2022-10-29T10:46:19.940Z,9.43
2022-10-29T10:48:57.767Z,9.25
2022-10-29T10:51:28.040Z,15.25
2022-10-29T10:53:54.932Z,9.60
2022-10-29T10:56:23.323Z,12.32
2022-10-29T10:59:03.506Z,11.75
2022-10-29T11:01:35.216Z,10.93
2022-10-29T11:04:10.808Z,8.68
2022-10-29T11:06:41.608Z,11.40
2022-10-29T11:09:18.573Z,12.73
2022-10-29T11:11:57.923Z,11.75
2022-10-29T11:14:31.565Z,12.43
2022-10-29T11:17:01.316Z,10.93
2022-10-29T11:19:35.925Z,13.68
2022-10-29T11:22:12.209Z,10.35
2022-10-29T11:24:53.002Z,9.57
2022-10-29T11:27:32.288Z,8.68
2022-10-29T11:30:04.828Z,8.68
2022-10-29T11:32:44.750Z,16.17
2022-10-29T11:35:32.813Z,9.57
2022-10-29T11:38:11.386Z,10.98
2022-10-29T11:40:44.867Z,9.30
2022-10-29T11:43:31.379Z,10.20
2022-10-29T11:46:03.453Z,12.50
2022-10-29T11:48:54.629Z,9.95
2022-10-29T11:51:31.063Z,9.13
2022-10-29T11:54:18.195Z,10.07
2022-10-29T11:56:52.736Z,10.65
2022-10-29T11:59:37.998Z,9.25
2022-10-29T12:02:20.425Z,8.88
2022-10-29T12:04:53.936Z,12.65
2022-10-29T12:07:34.954Z,9.48
2022-10-29T12:10:19.323Z,9.18
2022-10-29T12:12:53.507Z,7.93
2022-10-29T12:15:26.936Z,8.70
2022-10-29T12:18:06.158Z,8.82
2022-10-29T12:23:15.665Z,10.35
2022-10-29T12:25:54.647Z,8.77
2022-10-29T12:28:29.915Z,8.82
2022-10-29T12:31:13.075Z,8.88
2022-10-29T12:33:48.197Z,10.80
2022-10-29T12:36:23.600Z,7.80
2022-10-29T12:38:53.606Z,11.45
2022-10-29T12:41:24.065Z,10.68
2022-10-29T12:43:51.882Z,7.72
2022-10-29T12:46:33.081Z,9.75
2022-10-29T12:49:18.757Z,9.15
2022-10-29T12:51:53.426Z,11.35
2022-10-29T12:54:28.920Z,10.98
2022-10-29T12:56:56.028Z,11.75
2022-10-29T12:59:42.700Z,10.88
2022-10-29T13:02:42.239Z,10.80
2022-10-29T13:05:39.563Z,17.77
2022-10-29T13:08:32.902Z,9.50
2022-10-29T13:10:59.760Z,11.70
2022-10-29T13:13:59.638Z,8.80
2022-10-29T13:16:29.691Z,12.90
2022-10-29T13:19:22.575Z,8.10
2022-10-29T13:22:35.272Z,10.55
2022-10-29T13:25:44.618Z,13.57
2022-10-29T13:28:48.647Z,15.10
2022-10-29T13:31:59.479Z,17.75
2022-10-29T13:34:50.612Z,12.20
2022-10-29T13:37:57.209Z,10.88
2022-10-29T13:41:03.152Z,12.02
2022-10-29T13:43:40.019Z,15.05
2022-10-29T13:46:28.457Z,16.00
2022-10-29T13:49:11.402Z,13.63
2022-10-29T13:51:49.838Z,11.88
2022-10-29T13:54:23.104Z,10.07
2022-10-29T13:56:54.898Z,10.98
2022-10-29T13:59:41.153Z,13.15
2022-10-29T14:02:23.614Z,17.05
2022-10-29T14:04:55.635Z,13.18
2022-10-29T14:07:47.397Z,9.70
2022-10-29T14:10:18.834Z,12.75
2022-10-29T14:12:48.595Z,12.60
2022-10-29T14:15:42.066Z,17.00
2022-10-29T14:18:18.563Z,15.45
2022-10-29T14:20:55.243Z,14.80
2022-10-29T14:23:23.798Z,12.35
2022-10-29T14:25:52.001Z,13.07
2022-10-29T14:28:23.780Z,17.98
2022-10-29T14:31:01.859Z,12.20
2022-10-29T14:33:30.753Z,15.25
2022-10-29T14:36:05.543Z,20.15
2022-10-29T14:38:39.364Z,11.55
2022-10-29T14:41:06.126Z,14.48
2022-10-29T14:43:55.333Z,11.50
2022-10-29T14:46:34.695Z,12.15
2022-10-29T14:51:51.758Z,12.25
2022-10-29T14:54:23.923Z,13.93
2022-10-29T14:56:59.072Z,16.20
2022-10-29T14:59:29.390Z,15.27
2022-10-29T15:02:05.597Z,20.10
2022-10-29T15:04:49.565Z,22.30
2022-10-29T15:07:28.867Z,18.50
2022-10-29T15:10:38.305Z,15.60
2022-10-29T15:13:41.079Z,19.40
2022-10-29T15:16:27.332Z,15.80
2022-10-29T15:18:55.670Z,17.73
2022-10-29T15:21:23.729Z,18.00
2022-10-29T15:23:55.478Z,17.45
2022-10-29T15:26:22.279Z,18.58
2022-10-29T15:28:54.525Z,18.05
2022-10-29T15:31:34.202Z,20.83
2022-10-29T15:34:08.056Z,18.45
2022-10-29T15:36:48.542Z,18.55
2022-10-29T15:39:20.940Z,19.17
2022-10-29T15:41:49.584Z,20.55
2022-10-29T15:44:39.093Z,25.33
2022-10-29T15:47:26.782Z,19.45
2022-10-29T15:49:53.498Z,20.33
2022-10-29T15:52:24.597Z,19.23
2022-10-29T15:54:51.258Z,22.70
2022-10-29T15:57:18.111Z,21.75
2022-10-29T15:59:46.277Z,18.77
2022-10-29T16:02:14.552Z,21.80
2022-10-29T16:04:41.330Z,25.88
2022-10-29T16:07:11.693Z,26.30
2022-10-29T16:09:42.670Z,38.53
2022-10-29T16:12:10.351Z,27.27
2022-10-29T16:14:37.217Z,28.45
2022-10-29T16:17:12.085Z,26.35
2022-10-29T16:19:38.735Z,31.73
2022-10-29T16:22:05.452Z,26.73
2022-10-29T16:24:32.112Z,33.40
2022-10-29T16:26:58.751Z,28.80
2022-10-29T16:29:25.387Z,29.63
2022-10-29T16:31:52.190Z,33.35
2022-10-29T16:34:27.226Z,29.77
2022-10-29T16:36:53.944Z,32.42
2022-10-29T16:39:20.625Z,32.72
2022-10-29T16:41:47.345Z,37.97
2022-10-29T16:44:14.100Z,40.42
2022-10-29T16:46:40.853Z,36.88
2022-10-29T16:49:07.479Z,42.22
2022-10-29T16:51:35.607Z,35.50
2022-10-29T16:54:02.309Z,35.05
2022-10-29T16:56:29.061Z,28.88
2022-10-29T16:59:01.602Z,28.83
2022-10-29T17:01:28.780Z,59.38
2022-10-29T17:03:55.541Z,48.08
2022-10-29T17:06:22.253Z,45.97
2022-10-29T17:08:50.397Z,37.83
2022-10-29T17:11:17.125Z,38.50
2022-10-29T17:13:43.903Z,35.28
2022-10-29T17:16:12.517Z,32.15
2022-10-29T17:18:42.321Z,30.97
2022-10-29T17:21:09.029Z,36.85
2022-10-29T17:23:35.769Z,32.35
2022-10-29T17:26:04.076Z,39.70
2022-10-29T17:28:30.756Z,40.30
2022-10-29T17:30:57.439Z,35.88
2022-10-29T17:33:24.070Z,35.95
2022-10-29T17:36:00.855Z,28.98
2022-10-29T17:38:27.535Z,36.55
2022-10-29T17:40:54.190Z,44.35
2022-10-29T17:43:22.522Z,43.58
2022-10-29T17:45:49.229Z,33.63
2022-10-29T17:48:17.783Z,34.13
2022-10-29T17:53:18.483Z,36.22
2022-10-29T17:55:45.110Z,35.72
2022-10-29T17:58:15.532Z,38.00
2022-10-29T18:00:46.677Z,32.40
2022-10-29T18:03:13.744Z,40.00
2022-10-29T18:05:40.446Z,39.28
2022-10-29T18:08:07.234Z,34.53
2022-10-29T18:10:34.560Z,33.75
2022-10-29T18:13:01.377Z,37.35
2022-10-29T18:15:28.425Z,46.10
2022-10-29T18:17:58.916Z,45.70
2022-10-29T18:20:25.667Z,39.72
2022-10-29T18:22:55.894Z,39.58
2022-10-29T18:25:22.987Z,48.08
2022-10-29T18:27:56.722Z,51.22
2022-10-29T18:30:23.640Z,42.33
2022-10-29T18:32:50.440Z,50.65
2022-10-29T18:35:18.626Z,36.25
2022-10-29T18:37:46.070Z,33.95
2022-10-29T18:40:13.004Z,56.78
2022-10-29T18:42:39.707Z,68.78
2022-10-29T18:45:07.594Z,62.33
2022-10-29T18:47:34.238Z,60.88
2022-10-29T18:50:00.943Z,65.22
2022-10-29T18:52:28.997Z,61.28
2022-10-29T18:54:55.793Z,73.82
2022-10-29T18:57:22.517Z,70.70
2022-10-29T18:59:49.255Z,61.90
2022-10-29T19:02:16.230Z,69.47
2022-10-29T19:04:43.152Z,73.22
2022-10-29T19:07:09.826Z,75.15
2022-10-29T19:09:37.875Z,67.13
2022-10-29T19:12:04.955Z,82.03
2022-10-29T19:14:31.651Z,93.88
2022-10-29T19:16:58.319Z,64.95
2022-10-29T19:19:25.067Z,73.15
2022-10-29T19:21:51.771Z,84.32
2022-10-29T19:24:18.615Z,77.47
2022-10-29T19:26:47.017Z,73.90
2022-10-29T19:29:14.045Z,56.13
2022-10-29T19:31:40.902Z,60.15
2022-10-29T19:34:08.508Z,147.73
2022-10-29T19:36:37.404Z,144.35
2022-10-29T19:39:04.311Z,119.75
2022-10-29T19:41:31.070Z,82.57
2022-10-29T19:44:00.274Z,174.75
2022-10-29T19:46:27.157Z,76.22
2022-10-29T19:48:55.432Z,81.82
2022-10-29T19:51:23.209Z,70.15
2022-10-29T19:53:50.481Z,97.95
2022-10-29T19:56:17.844Z,98.10
2022-10-29T19:58:44.561Z,82.97
2022-10-29T20:01:14.419Z,85.20
2022-10-29T20:03:41.268Z,90.13
2022-10-29T20:06:08.732Z,93.07
2022-10-29T20:08:35.648Z,74.20
2022-10-29T20:11:02.366Z,63.72
2022-10-29T20:13:29.020Z,52.97
2022-10-29T20:15:55.704Z,51.28
2022-10-29T20:18:24.000Z,46.65
2022-10-29T20:20:54.553Z,69.40
2022-10-29T20:23:21.427Z,57.08
2022-10-29T20:25:48.113Z,74.60
2022-10-29T20:28:15.025Z,87.88
2022-10-29T20:30:41.667Z,88.57
2022-10-29T20:33:08.318Z,80.22
2022-10-29T20:35:36.420Z,133.45
2022-10-29T20:38:03.330Z,151.48
2022-10-29T20:40:30.043Z,60.40
2022-10-29T20:42:56.815Z,76.95
2022-10-29T20:45:23.683Z,209.82
2022-10-29T20:47:50.323Z,72.47
2022-10-29T20:50:17.061Z,50.78
2022-10-29T20:52:59.147Z,57.40
2022-10-29T20:55:25.951Z,53.17
2022-10-29T20:57:52.623Z,74.35
2022-10-29T21:00:19.500Z,59.75
2022-10-29T21:02:46.257Z,61.17
2022-10-29T21:05:13.020Z,38.60
2022-10-29T21:07:39.849Z,39.90
2022-10-29T21:10:09.373Z,49.33
2022-10-29T21:12:36.073Z,58.85
2022-10-29T21:15:02.821Z,121.60
2022-10-29T21:17:29.556Z,58.97
2022-10-29T21:19:56.243Z,43.85
2022-10-29T21:22:22.944Z,39.65
2022-10-29T21:24:49.631Z,47.05
2022-10-29T21:27:17.786Z,74.47
2022-10-29T21:29:44.454Z,87.53
2022-10-29T21:32:14.347Z,60.63
2022-10-29T21:34:59.112Z,112.00
2022-10-29T21:37:26.278Z,95.32
2022-10-29T21:39:52.970Z,53.55
2022-10-29T21:42:21.244Z,76.07
2022-10-29T21:44:47.917Z,61.95
2022-10-29T21:47:16.758Z,55.38
2022-10-29T21:49:46.911Z,63.70
2022-10-29T21:52:16.348Z,52.08
2022-10-29T21:54:43.109Z,59.67
2022-10-29T21:57:15.874Z,66.65
2022-10-29T21:59:58.254Z,98.50
2022-10-29T22:02:25.258Z,31.23
2022-10-29T22:04:52.040Z,54.50
2022-10-29T22:07:30.808Z,38.83
2022-10-29T22:09:57.599Z,51.88
2022-10-29T22:12:24.348Z,82.35
2022-10-29T22:14:51.112Z,68.80
2022-10-29T22:17:19.292Z,95.40
2022-10-29T22:19:46.203Z,63.60
2022-10-29T22:22:13.079Z,32.40
2022-10-29T22:24:39.828Z,38.65
2022-10-29T22:27:07.753Z,134.98
2022-10-29T22:29:38.872Z,63.17
2022-10-29T23:17:05.655Z,85.57
2022-10-29T23:19:32.290Z,96.18
2022-10-29T23:21:58.916Z,109.38
2022-10-29T23:24:25.676Z,124.25
2022-10-29T23:26:52.371Z,106.80
2022-10-29T23:29:30.320Z,34.13
2022-10-29T23:31:56.988Z,129.48
2022-10-29T23:34:25.054Z,103.05
2022-10-29T23:39:19.264Z,35.63
2022-10-29T23:41:45.913Z,38.85
2022-10-29T23:44:12.633Z,39.03
2022-10-29T23:46:39.311Z,101.53
2022-10-29T23:49:05.987Z,110.72
2022-10-29T23:54:01.738Z,84.60
2022-10-29T23:56:28.401Z,87.82
2022-10-29T23:58:55.298Z,135.13
